sensor_id;sensor_type;location;lat;lon;timestamp;temperature;humidity
74484;SHT31;62942;52.462;10.846;2023-05-16T00:00:16;9.1;85.9
74484;SHT31;62942;52.462;10.846;2023-05-16T00:01:26;9.1;85.8
74484;SHT31;62942;52.462;10.846;2023-05-16T00:02:36;9.1;86
74484;SHT31;62942;52.462;10.846;2023-05-16T00:03:36;9.1;85.8
74484;SHT31;62942;52.462;10.846;2023-05-16T00:04:36;9;86
74484;SHT31;62942;52.462;10.846;2023-05-16T00:05:46;9;86.2
74484;SHT31;62942;52.462;10.846;2023-05-16T00:06:46;9;86.1
74484;SHT31;62942;52.462;10.846;2023-05-16T00:07:46;9;86.2
74484;SHT31;62942;52.462;10.846;2023-05-16T00:08:56;9;86.3
74484;SHT31;62942;52.462;10.846;2023-05-16T00:10:06;9;86.4
74484;SHT31;62942;52.462;10.846;2023-05-16T00:11:16;9;86.4
74484;SHT31;62942;52.462;10.846;2023-05-16T00:12:26;9;86.3
74484;SHT31;62942;52.462;10.846;2023-05-16T00:13:27;9.1;86.2
74484;SHT31;62942;52.462;10.846;2023-05-16T00:14:26;9.1;86.2
74484;SHT31;62942;52.462;10.846;2023-05-16T00:15:36;9.1;86.4
74484;SHT31;62942;52.462;10.846;2023-05-16T00:16:46;9.1;86.3
74484;SHT31;62942;52.462;10.846;2023-05-16T00:17:46;9.1;86.1
74484;SHT31;62942;52.462;10.846;2023-05-16T00:18:46;9.1;86.3
74484;SHT31;62942;52.462;10.846;2023-05-16T00:19:56;9.1;86.4
74484;SHT31;62942;52.462;10.846;2023-05-16T00:20:56;9.1;86.3
74484;SHT31;62942;52.462;10.846;2023-05-16T00:21:56;9.1;86.5
74484;SHT31;62942;52.462;10.846;2023-05-16T00:23:06;9.1;86.6
74484;SHT31;62942;52.462;10.846;2023-05-16T00:24:06;9.1;86.6
74484;SHT31;62942;52.462;10.846;2023-05-16T00:25:16;9.1;86.5
74484;SHT31;62942;52.462;10.846;2023-05-16T00:26:26;9.1;86.6
74484;SHT31;62942;52.462;10.846;2023-05-16T00:27:26;9.1;86.7
74484;SHT31;62942;52.462;10.846;2023-05-16T00:28:26;9.1;86.5
74484;SHT31;62942;52.462;10.846;2023-05-16T00:29:36;9.1;86.3
74484;SHT31;62942;52.462;10.846;2023-05-16T00:30:36;9.1;86.5
74484;SHT31;62942;52.462;10.846;2023-05-16T00:31:46;9.2;86.4
74484;SHT31;62942;52.462;10.846;2023-05-16T00:32:56;9.2;86.4
74484;SHT31;62942;52.462;10.846;2023-05-16T00:34:06;9.2;86.5
74484;SHT31;62942;52.462;10.846;2023-05-16T00:35:06;9.2;86.3
74484;SHT31;62942;52.462;10.846;2023-05-16T00:36:16;9.2;86.3
74484;SHT31;62942;52.462;10.846;2023-05-16T00:37:26;9.3;86.4
74484;SHT31;62942;52.462;10.846;2023-05-16T00:38:36;9.3;86.4
74484;SHT31;62942;52.462;10.846;2023-05-16T00:39:36;9.3;86.2
74484;SHT31;62942;52.462;10.846;2023-05-16T00:40:46;9.3;86.1
74484;SHT31;62942;52.462;10.846;2023-05-16T00:41:56;9.3;86.1
74484;SHT31;62942;52.462;10.846;2023-05-16T00:43:06;9.3;85.9
74484;SHT31;62942;52.462;10.846;2023-05-16T00:44:16;9.3;85.8
74484;SHT31;62942;52.462;10.846;2023-05-16T00:45:16;9.3;85.6
74484;SHT31;62942;52.462;10.846;2023-05-16T00:46:26;9.3;85.6
74484;SHT31;62942;52.462;10.846;2023-05-16T00:47:36;9.4;85.6
74484;SHT31;62942;52.462;10.846;2023-05-16T00:48:36;9.4;85.5
74484;SHT31;62942;52.462;10.846;2023-05-16T00:49:36;9.4;85.4
74484;SHT31;62942;52.462;10.846;2023-05-16T00:50:46;9.4;85.2
74484;SHT31;62942;52.462;10.846;2023-05-16T00:51:46;9.4;85.2
74484;SHT31;62942;52.462;10.846;2023-05-16T00:52:56;9.4;85
74484;SHT31;62942;52.462;10.846;2023-05-16T00:54:06;9.4;85
74484;SHT31;62942;52.462;10.846;2023-05-16T00:55:06;9.4;84.9
74484;SHT31;62942;52.462;10.846;2023-05-16T00:56:16;9.4;84.8
74484;SHT31;62942;52.462;10.846;2023-05-16T00:57:26;9.4;84.7
74484;SHT31;62942;52.462;10.846;2023-05-16T00:58:26;9.4;84.7
74484;SHT31;62942;52.462;10.846;2023-05-16T00:59:36;9.4;84.6
74484;SHT31;62942;52.462;10.846;2023-05-16T01:00:36;9.4;84.6
74484;SHT31;62942;52.462;10.846;2023-05-16T01:01:36;9.4;84.7
74484;SHT31;62942;52.462;10.846;2023-05-16T01:02:46;9.4;84.5
74484;SHT31;62942;52.462;10.846;2023-05-16T01:03:56;9.4;84.5
74484;SHT31;62942;52.462;10.846;2023-05-16T01:04:56;9.4;84.3
74484;SHT31;62942;52.462;10.846;2023-05-16T01:06:06;9.4;84.3
74484;SHT31;62942;52.462;10.846;2023-05-16T01:07:06;9.4;84.2
74484;SHT31;62942;52.462;10.846;2023-05-16T01:08:16;9.3;84.2
74484;SHT31;62942;52.462;10.846;2023-05-16T01:09:26;9.3;84.2
74484;SHT31;62942;52.462;10.846;2023-05-16T01:10:38;9.3;84
74484;SHT31;62942;52.462;10.846;2023-05-16T01:11:38;9.3;83.9
74484;SHT31;62942;52.462;10.846;2023-05-16T01:12:47;9.3;83.8
74484;SHT31;62942;52.462;10.846;2023-05-16T01:13:47;9.4;83.4
74484;SHT31;62942;52.462;10.846;2023-05-16T01:14:59;9.4;83.4
74484;SHT31;62942;52.462;10.846;2023-05-16T01:15:58;9.4;83.1
74484;SHT31;62942;52.462;10.846;2023-05-16T01:17:07;9.4;83
74484;SHT31;62942;52.462;10.846;2023-05-16T01:18:18;9.4;82.9
74484;SHT31;62942;52.462;10.846;2023-05-16T01:19:19;9.4;82.8
74484;SHT31;62942;52.462;10.846;2023-05-16T01:20:29;9.5;82.8
74484;SHT31;62942;52.462;10.846;2023-05-16T01:21:29;9.5;82.7
74484;SHT31;62942;52.462;10.846;2023-05-16T01:22:40;9.5;82.7
74484;SHT31;62942;52.462;10.846;2023-05-16T01:23:39;9.5;82.6
74484;SHT31;62942;52.462;10.846;2023-05-16T01:24:39;9.5;82.6
74484;SHT31;62942;52.462;10.846;2023-05-16T01:25:55;9.5;82.6
74484;SHT31;62942;52.462;10.846;2023-05-16T01:26:56;9.6;82.4
74484;SHT31;62942;52.462;10.846;2023-05-16T01:27:56;9.6;82.4
74484;SHT31;62942;52.462;10.846;2023-05-16T01:29:06;9.6;82.5
74484;SHT31;62942;52.462;10.846;2023-05-16T01:30:12;9.6;82.4
74484;SHT31;62942;52.462;10.846;2023-05-16T01:31:16;9.6;82.3
74484;SHT31;62942;52.462;10.846;2023-05-16T01:32:26;9.6;82.2
74484;SHT31;62942;52.462;10.846;2023-05-16T01:33:36;9.7;82.2
74484;SHT31;62942;52.462;10.846;2023-05-16T01:34:36;9.7;82.2
74484;SHT31;62942;52.462;10.846;2023-05-16T01:35:38;9.6;82.2
74484;SHT31;62942;52.462;10.846;2023-05-16T01:36:47;9.7;82.2
74484;SHT31;62942;52.462;10.846;2023-05-16T01:37:57;9.7;82.3
74484;SHT31;62942;52.462;10.846;2023-05-16T01:39:08;9.7;82.2
74484;SHT31;62942;52.462;10.846;2023-05-16T01:40:08;9.7;82.2
74484;SHT31;62942;52.462;10.846;2023-05-16T01:41:07;9.7;82.2
74484;SHT31;62942;52.462;10.846;2023-05-16T01:42:16;9.7;82.2
74484;SHT31;62942;52.462;10.846;2023-05-16T01:43:28;9.7;82.1
74484;SHT31;62942;52.462;10.846;2023-05-16T01:44:36;9.7;82.1
74484;SHT31;62942;52.462;10.846;2023-05-16T01:45:46;9.8;82.2
74484;SHT31;62942;52.462;10.846;2023-05-16T01:46:46;9.7;82.1
74484;SHT31;62942;52.462;10.846;2023-05-16T01:47:48;9.8;82.2
74484;SHT31;62942;52.462;10.846;2023-05-16T01:48:57;9.8;82.2
74484;SHT31;62942;52.462;10.846;2023-05-16T01:50:07;9.8;82.3
74484;SHT31;62942;52.462;10.846;2023-05-16T01:51:06;9.8;82.2
74484;SHT31;62942;52.462;10.846;2023-05-16T01:52:07;9.8;82.1
74484;SHT31;62942;52.462;10.846;2023-05-16T01:53:17;9.8;82.1
74484;SHT31;62942;52.462;10.846;2023-05-16T01:54:28;9.8;82.3
74484;SHT31;62942;52.462;10.846;2023-05-16T01:55:28;9.8;82.2
74484;SHT31;62942;52.462;10.846;2023-05-16T01:56:36;9.8;82.4
74484;SHT31;62942;52.462;10.846;2023-05-16T01:57:46;9.8;82.4
74484;SHT31;62942;52.462;10.846;2023-05-16T01:58:46;9.8;82.4
74484;SHT31;62942;52.462;10.846;2023-05-16T01:59:56;9.8;82.3
74484;SHT31;62942;52.462;10.846;2023-05-16T02:01:06;9.8;82.2
74484;SHT31;62942;52.462;10.846;2023-05-16T02:02:06;9.8;82.2
74484;SHT31;62942;52.462;10.846;2023-05-16T02:03:06;9.9;82.1
74484;SHT31;62942;52.462;10.846;2023-05-16T02:04:16;9.9;82.4
74484;SHT31;62942;52.462;10.846;2023-05-16T02:05:16;9.9;82.2
74484;SHT31;62942;52.462;10.846;2023-05-16T02:06:16;9.9;82.3
74484;SHT31;62942;52.462;10.846;2023-05-16T02:07:26;9.9;82.3
74484;SHT31;62942;52.462;10.846;2023-05-16T02:08:26;9.9;82.4
74484;SHT31;62942;52.462;10.846;2023-05-16T02:09:36;9.9;82.4
74484;SHT31;62942;52.462;10.846;2023-05-16T02:10:36;9.9;82.3
74484;SHT31;62942;52.462;10.846;2023-05-16T02:11:36;9.9;82.3
74484;SHT31;62942;52.462;10.846;2023-05-16T02:12:46;9.9;82.4
74484;SHT31;62942;52.462;10.846;2023-05-16T02:13:46;9.9;82.3
74484;SHT31;62942;52.462;10.846;2023-05-16T02:14:46;9.9;82.4
74484;SHT31;62942;52.462;10.846;2023-05-16T02:15:56;9.9;82.4
74484;SHT31;62942;52.462;10.846;2023-05-16T02:17:06;9.9;82.5
74484;SHT31;62942;52.462;10.846;2023-05-16T02:18:16;9.9;82.4
74484;SHT31;62942;52.462;10.846;2023-05-16T02:19:26;9.9;82.5
74484;SHT31;62942;52.462;10.846;2023-05-16T02:20:36;9.9;82.8
74484;SHT31;62942;52.462;10.846;2023-05-16T02:21:36;9.9;82.8
74484;SHT31;62942;52.462;10.846;2023-05-16T02:22:36;9.9;82.6
74484;SHT31;62942;52.462;10.846;2023-05-16T02:23:36;9.9;82.8
74484;SHT31;62942;52.462;10.846;2023-05-16T02:24:37;9.9;82.8
74484;SHT31;62942;52.462;10.846;2023-05-16T02:25:46;9.9;82.9
74484;SHT31;62942;52.462;10.846;2023-05-16T02:26:56;9.9;83.3
74484;SHT31;62942;52.462;10.846;2023-05-16T02:27:56;9.9;83.2
74484;SHT31;62942;52.462;10.846;2023-05-16T02:28:56;9.9;83.3
74484;SHT31;62942;52.462;10.846;2023-05-16T02:29:56;9.9;83.5
74484;SHT31;62942;52.462;10.846;2023-05-16T02:31:06;9.9;83.6
74484;SHT31;62942;52.462;10.846;2023-05-16T02:32:06;9.9;83.8
74484;SHT31;62942;52.462;10.846;2023-05-16T02:33:06;9.8;83.7
74484;SHT31;62942;52.462;10.846;2023-05-16T02:34:06;9.8;83.7
74484;SHT31;62942;52.462;10.846;2023-05-16T02:35:06;9.9;83.9
74484;SHT31;62942;52.462;10.846;2023-05-16T02:36:06;9.9;84
74484;SHT31;62942;52.462;10.846;2023-05-16T02:37:16;9.8;83.8
74484;SHT31;62942;52.462;10.846;2023-05-16T02:38:26;9.9;84
74484;SHT31;62942;52.462;10.846;2023-05-16T02:39:36;9.8;84
74484;SHT31;62942;52.462;10.846;2023-05-16T02:40:36;9.8;84.1
74484;SHT31;62942;52.462;10.846;2023-05-16T02:41:46;9.9;84.3
74484;SHT31;62942;52.462;10.846;2023-05-16T02:42:46;9.8;84.2
74484;SHT31;62942;52.462;10.846;2023-05-16T02:43:46;9.8;84.2
74484;SHT31;62942;52.462;10.846;2023-05-16T02:44:46;9.8;84.2
74484;SHT31;62942;52.462;10.846;2023-05-16T02:45:56;9.9;84.3
74484;SHT31;62942;52.462;10.846;2023-05-16T02:46:56;9.8;84.1
74484;SHT31;62942;52.462;10.846;2023-05-16T02:48:06;9.9;84.3
74484;SHT31;62942;52.462;10.846;2023-05-16T02:49:06;9.9;84.3
74484;SHT31;62942;52.462;10.846;2023-05-16T02:50:06;9.9;84.2
74484;SHT31;62942;52.462;10.846;2023-05-16T02:51:06;9.9;84.5
74484;SHT31;62942;52.462;10.846;2023-05-16T02:52:16;9.9;84.3
74484;SHT31;62942;52.462;10.846;2023-05-16T02:53:16;9.9;84.2
74484;SHT31;62942;52.462;10.846;2023-05-16T02:54:16;9.9;84.2
74484;SHT31;62942;52.462;10.846;2023-05-16T02:55:26;9.9;84.1
74484;SHT31;62942;52.462;10.846;2023-05-16T02:56:26;9.9;84
74484;SHT31;62942;52.462;10.846;2023-05-16T02:57:26;9.9;84.1
74484;SHT31;62942;52.462;10.846;2023-05-16T02:58:36;9.9;83.9
74484;SHT31;62942;52.462;10.846;2023-05-16T02:59:36;9.9;83.8
74484;SHT31;62942;52.462;10.846;2023-05-16T03:00:46;9.9;84
74484;SHT31;62942;52.462;10.846;2023-05-16T03:01:46;9.9;84
74484;SHT31;62942;52.462;10.846;2023-05-16T03:02:56;9.9;83.9
74484;SHT31;62942;52.462;10.846;2023-05-16T03:03:56;10;83.9
74484;SHT31;62942;52.462;10.846;2023-05-16T03:04:56;9.9;83.8
74484;SHT31;62942;52.462;10.846;2023-05-16T03:06:06;10;83.8
74484;SHT31;62942;52.462;10.846;2023-05-16T03:07:06;10;83.9
74484;SHT31;62942;52.462;10.846;2023-05-16T03:08:06;10;83.8
74484;SHT31;62942;52.462;10.846;2023-05-16T03:09:16;10;83.8
74484;SHT31;62942;52.462;10.846;2023-05-16T03:10:16;10;83.8
74484;SHT31;62942;52.462;10.846;2023-05-16T03:11:16;10;83.9
74484;SHT31;62942;52.462;10.846;2023-05-16T03:12:16;10;83.8
74484;SHT31;62942;52.462;10.846;2023-05-16T03:13:26;10;83.7
74484;SHT31;62942;52.462;10.846;2023-05-16T03:14:36;10;83.7
74484;SHT31;62942;52.462;10.846;2023-05-16T03:15:46;10;83.7
74484;SHT31;62942;52.462;10.846;2023-05-16T03:16:46;10;83.7
74484;SHT31;62942;52.462;10.846;2023-05-16T03:17:56;10;83.7
74484;SHT31;62942;52.462;10.846;2023-05-16T03:18:56;10;83.6
74484;SHT31;62942;52.462;10.846;2023-05-16T03:19:56;10;83.6
74484;SHT31;62942;52.462;10.846;2023-05-16T03:21:06;10;83.6
74484;SHT31;62942;52.462;10.846;2023-05-16T03:22:06;10.1;83.6
74484;SHT31;62942;52.462;10.846;2023-05-16T03:23:16;10.1;83.5
74484;SHT31;62942;52.462;10.846;2023-05-16T03:24:16;10.1;83.5
74484;SHT31;62942;52.462;10.846;2023-05-16T03:25:16;10.1;83.4
74484;SHT31;62942;52.462;10.846;2023-05-16T03:26:16;10.1;83.4
74484;SHT31;62942;52.462;10.846;2023-05-16T03:27:16;10.1;83.4
74484;SHT31;62942;52.462;10.846;2023-05-16T03:28:16;10.1;83.4
74484;SHT31;62942;52.462;10.846;2023-05-16T03:29:16;10.1;83.3
74484;SHT31;62942;52.462;10.846;2023-05-16T03:30:26;10.1;83.2
74484;SHT31;62942;52.462;10.846;2023-05-16T03:31:36;10.1;83.1
74484;SHT31;62942;52.462;10.846;2023-05-16T03:32:46;10.2;83
74484;SHT31;62942;52.462;10.846;2023-05-16T03:33:56;10.2;83
74484;SHT31;62942;52.462;10.846;2023-05-16T03:35:06;10.2;83
74484;SHT31;62942;52.462;10.846;2023-05-16T03:36:06;10.2;83
74484;SHT31;62942;52.462;10.846;2023-05-16T03:37:16;10.2;83
74484;SHT31;62942;52.462;10.846;2023-05-16T03:38:16;10.2;83
74484;SHT31;62942;52.462;10.846;2023-05-16T03:39:26;10.2;83
74484;SHT31;62942;52.462;10.846;2023-05-16T03:40:36;10.2;82.9
74484;SHT31;62942;52.462;10.846;2023-05-16T03:41:46;10.2;82.8
74484;SHT31;62942;52.462;10.846;2023-05-16T03:42:56;10.2;82.8
74484;SHT31;62942;52.462;10.846;2023-05-16T03:43:56;10.2;82.8
74484;SHT31;62942;52.462;10.846;2023-05-16T03:45:06;10.3;82.9
74484;SHT31;62942;52.462;10.846;2023-05-16T03:46:06;10.2;82.8
74484;SHT31;62942;52.462;10.846;2023-05-16T03:47:16;10.2;82.8
74484;SHT31;62942;52.462;10.846;2023-05-16T03:48:26;10.2;82.7
74484;SHT31;62942;52.462;10.846;2023-05-16T03:49:26;10.3;82.7
74484;SHT31;62942;52.462;10.846;2023-05-16T03:50:36;10.3;82.8
74484;SHT31;62942;52.462;10.846;2023-05-16T03:51:46;10.3;82.8
74484;SHT31;62942;52.462;10.846;2023-05-16T03:52:46;10.3;82.8
74484;SHT31;62942;52.462;10.846;2023-05-16T03:53:46;10.3;82.8
74484;SHT31;62942;52.462;10.846;2023-05-16T03:54:56;10.3;82.8
74484;SHT31;62942;52.462;10.846;2023-05-16T03:55:56;10.3;82.8
74484;SHT31;62942;52.462;10.846;2023-05-16T03:56:56;10.3;82.7
74484;SHT31;62942;52.462;10.846;2023-05-16T03:58:06;10.3;82.8
74484;SHT31;62942;52.462;10.846;2023-05-16T03:59:06;10.3;82.7
74484;SHT31;62942;52.462;10.846;2023-05-16T04:00:16;10.4;82.7
74484;SHT31;62942;52.462;10.846;2023-05-16T04:01:16;10.4;82.7
74484;SHT31;62942;52.462;10.846;2023-05-16T04:02:26;10.4;82.6
74484;SHT31;62942;52.462;10.846;2023-05-16T04:03:26;10.4;82.6
74484;SHT31;62942;52.462;10.846;2023-05-16T04:04:26;10.4;82.5
74484;SHT31;62942;52.462;10.846;2023-05-16T04:05:36;10.4;82.5
74484;SHT31;62942;52.462;10.846;2023-05-16T04:06:36;10.4;82.6
74484;SHT31;62942;52.462;10.846;2023-05-16T04:07:36;10.4;82.6
74484;SHT31;62942;52.462;10.846;2023-05-16T04:08:36;10.4;82.5
74484;SHT31;62942;52.462;10.846;2023-05-16T04:09:46;10.4;82.6
74484;SHT31;62942;52.462;10.846;2023-05-16T04:10:56;10.4;82.6
74484;SHT31;62942;52.462;10.846;2023-05-16T04:11:56;10.4;82.7
74484;SHT31;62942;52.462;10.846;2023-05-16T04:12:56;10.4;82.6
74484;SHT31;62942;52.462;10.846;2023-05-16T04:13:56;10.5;82.7
74484;SHT31;62942;52.462;10.846;2023-05-16T04:15:06;10.4;82.6
74484;SHT31;62942;52.462;10.846;2023-05-16T04:16:06;10.4;82.6
74484;SHT31;62942;52.462;10.846;2023-05-16T04:17:16;10.5;82.6
74484;SHT31;62942;52.462;10.846;2023-05-16T04:18:16;10.4;82.9
74484;SHT31;62942;52.462;10.846;2023-05-16T04:19:26;10.4;82.8
74484;SHT31;62942;52.462;10.846;2023-05-16T04:20:26;10.5;82.8
74484;SHT31;62942;52.462;10.846;2023-05-16T04:21:36;10.5;82.9
74484;SHT31;62942;52.462;10.846;2023-05-16T04:22:36;10.5;82.8
74484;SHT31;62942;52.462;10.846;2023-05-16T04:23:46;10.5;82.8
74484;SHT31;62942;52.462;10.846;2023-05-16T04:24:56;10.5;82.8
74484;SHT31;62942;52.462;10.846;2023-05-16T04:25:56;10.5;82.7
74484;SHT31;62942;52.462;10.846;2023-05-16T04:26:56;10.5;82.8
74484;SHT31;62942;52.462;10.846;2023-05-16T04:27:56;10.5;83
74484;SHT31;62942;52.462;10.846;2023-05-16T04:28:56;10.5;83
74484;SHT31;62942;52.462;10.846;2023-05-16T04:29:56;10.5;82.9
74484;SHT31;62942;52.462;10.846;2023-05-16T04:31:06;10.5;83
74484;SHT31;62942;52.462;10.846;2023-05-16T04:32:16;10.5;83.1
74484;SHT31;62942;52.462;10.846;2023-05-16T04:33:26;10.4;83.1
74484;SHT31;62942;52.462;10.846;2023-05-16T04:34:26;10.4;83.2
74484;SHT31;62942;52.462;10.846;2023-05-16T04:35:36;10.4;83.1
74484;SHT31;62942;52.462;10.846;2023-05-16T04:36:36;10.4;83.3
74484;SHT31;62942;52.462;10.846;2023-05-16T04:37:36;10.4;83.2
74484;SHT31;62942;52.462;10.846;2023-05-16T04:38:36;10.4;83.6
74484;SHT31;62942;52.462;10.846;2023-05-16T04:39:36;10.4;83.8
74484;SHT31;62942;52.462;10.846;2023-05-16T04:40:46;10.3;84
74484;SHT31;62942;52.462;10.846;2023-05-16T04:41:46;10.3;84.2
74484;SHT31;62942;52.462;10.846;2023-05-16T04:42:46;10.4;84.3
74484;SHT31;62942;52.462;10.846;2023-05-16T04:43:46;10.3;84.4
74484;SHT31;62942;52.462;10.846;2023-05-16T04:44:56;10.3;84.3
74484;SHT31;62942;52.462;10.846;2023-05-16T04:45:56;10.3;84.4
74484;SHT31;62942;52.462;10.846;2023-05-16T04:46:56;10.3;84.6
74484;SHT31;62942;52.462;10.846;2023-05-16T04:47:56;10.3;84.7
74484;SHT31;62942;52.462;10.846;2023-05-16T04:49:06;10.3;84.7
74484;SHT31;62942;52.462;10.846;2023-05-16T04:50:06;10.3;84.7
74484;SHT31;62942;52.462;10.846;2023-05-16T04:51:16;10.3;84.8
74484;SHT31;62942;52.462;10.846;2023-05-16T04:52:16;10.3;84.9
74484;SHT31;62942;52.462;10.846;2023-05-16T04:53:26;10.3;84.9
74484;SHT31;62942;52.462;10.846;2023-05-16T04:54:26;10.3;85.1
74484;SHT31;62942;52.462;10.846;2023-05-16T04:55:26;10.3;84.9
74484;SHT31;62942;52.462;10.846;2023-05-16T04:56:36;10.4;84.8
74484;SHT31;62942;52.462;10.846;2023-05-16T04:57:36;10.3;84.7
74484;SHT31;62942;52.462;10.846;2023-05-16T04:58:36;10.4;84.3
74484;SHT31;62942;52.462;10.846;2023-05-16T04:59:46;10.4;84.4
74484;SHT31;62942;52.462;10.846;2023-05-16T05:00:46;10.3;84.5
74484;SHT31;62942;52.462;10.846;2023-05-16T05:01:56;10.4;84.4
74484;SHT31;62942;52.462;10.846;2023-05-16T05:03:06;10.4;84.3
74484;SHT31;62942;52.462;10.846;2023-05-16T05:04:06;10.4;84.3
74484;SHT31;62942;52.462;10.846;2023-05-16T05:05:16;10.4;84.2
74484;SHT31;62942;52.462;10.846;2023-05-16T05:06:16;10.4;84.2
74484;SHT31;62942;52.462;10.846;2023-05-16T05:07:26;10.4;84.1
74484;SHT31;62942;52.462;10.846;2023-05-16T05:08:36;10.5;83.9
74484;SHT31;62942;52.462;10.846;2023-05-16T05:09:46;10.5;83.8
74484;SHT31;62942;52.462;10.846;2023-05-16T05:10:46;10.5;83.6
74484;SHT31;62942;52.462;10.846;2023-05-16T05:11:56;10.6;83.6
74484;SHT31;62942;52.462;10.846;2023-05-16T05:13:06;10.5;83
74484;SHT31;62942;52.462;10.846;2023-05-16T05:14:06;10.6;83
74484;SHT31;62942;52.462;10.846;2023-05-16T05:15:16;10.6;83
74484;SHT31;62942;52.462;10.846;2023-05-16T05:16:16;10.7;82.9
74484;SHT31;62942;52.462;10.846;2023-05-16T05:17:26;10.7;82.6
74484;SHT31;62942;52.462;10.846;2023-05-16T05:18:36;10.7;82.6
74484;SHT31;62942;52.462;10.846;2023-05-16T05:19:36;10.8;82.4
74484;SHT31;62942;52.462;10.846;2023-05-16T05:20:46;10.8;82
74484;SHT31;62942;52.462;10.846;2023-05-16T05:21:46;10.8;81.4
74484;SHT31;62942;52.462;10.846;2023-05-16T05:22:56;10.8;81.6
74484;SHT31;62942;52.462;10.846;2023-05-16T05:23:56;10.8;81.3
74484;SHT31;62942;52.462;10.846;2023-05-16T05:25:06;10.9;81.4
74484;SHT31;62942;52.462;10.846;2023-05-16T05:26:16;10.9;81.1
74484;SHT31;62942;52.462;10.846;2023-05-16T05:27:26;10.9;81
74484;SHT31;62942;52.462;10.846;2023-05-16T05:28:26;10.9;81
74484;SHT31;62942;52.462;10.846;2023-05-16T05:29:36;10.9;80.8
74484;SHT31;62942;52.462;10.846;2023-05-16T05:30:46;10.9;80.4
74484;SHT31;62942;52.462;10.846;2023-05-16T05:31:56;10.9;80.4
74484;SHT31;62942;52.462;10.846;2023-05-16T05:32:56;10.9;80.4
74484;SHT31;62942;52.462;10.846;2023-05-16T05:34:06;10.9;80.4
74484;SHT31;62942;52.462;10.846;2023-05-16T05:35:06;10.9;80.4
74484;SHT31;62942;52.462;10.846;2023-05-16T05:36:16;11;80.3
74484;SHT31;62942;52.462;10.846;2023-05-16T05:37:26;10.9;80
74484;SHT31;62942;52.462;10.846;2023-05-16T05:38:26;10.9;79.5
74484;SHT31;62942;52.462;10.846;2023-05-16T05:39:36;11;79.5
74484;SHT31;62942;52.462;10.846;2023-05-16T05:40:46;10.9;79.4
74484;SHT31;62942;52.462;10.846;2023-05-16T05:41:56;10.9;78.9
74484;SHT31;62942;52.462;10.846;2023-05-16T05:42:56;10.9;78.8
74484;SHT31;62942;52.462;10.846;2023-05-16T05:44:06;10.9;78.9
74484;SHT31;62942;52.462;10.846;2023-05-16T05:45:06;10.9;78.6
74484;SHT31;62942;52.462;10.846;2023-05-16T05:46:16;10.9;78.2
74484;SHT31;62942;52.462;10.846;2023-05-16T05:47:26;10.9;78
74484;SHT31;62942;52.462;10.846;2023-05-16T05:48:26;10.9;78.2
74484;SHT31;62942;52.462;10.846;2023-05-16T05:49:36;10.9;78.3
74484;SHT31;62942;52.462;10.846;2023-05-16T05:50:46;10.9;78.2
74484;SHT31;62942;52.462;10.846;2023-05-16T05:51:46;10.9;78
74484;SHT31;62942;52.462;10.846;2023-05-16T05:52:56;11;78
74484;SHT31;62942;52.462;10.846;2023-05-16T05:54:06;11;78
74484;SHT31;62942;52.462;10.846;2023-05-16T05:55:16;11;77.8
74484;SHT31;62942;52.462;10.846;2023-05-16T05:56:26;11;77.5
74484;SHT31;62942;52.462;10.846;2023-05-16T05:57:36;11.1;77.7
74484;SHT31;62942;52.462;10.846;2023-05-16T05:58:36;11.1;77.7
74484;SHT31;62942;52.462;10.846;2023-05-16T05:59:46;11.2;77.4
74484;SHT31;62942;52.462;10.846;2023-05-16T06:00:56;11.2;77.3
74484;SHT31;62942;52.462;10.846;2023-05-16T06:01:56;11.3;76.9
74484;SHT31;62942;52.462;10.846;2023-05-16T06:03:06;11.4;76.7
74484;SHT31;62942;52.462;10.846;2023-05-16T06:04:06;11.4;76.3
74484;SHT31;62942;52.462;10.846;2023-05-16T06:05:16;11.4;76.2
74484;SHT31;62942;52.462;10.846;2023-05-16T06:06:26;11.5;76.2
74484;SHT31;62942;52.462;10.846;2023-05-16T06:07:26;11.6;75.9
74484;SHT31;62942;52.462;10.846;2023-05-16T06:08:36;11.7;75.8
74484;SHT31;62942;52.462;10.846;2023-05-16T06:09:46;11.7;75.2
74484;SHT31;62942;52.462;10.846;2023-05-16T06:10:56;11.8;75.1
74484;SHT31;62942;52.462;10.846;2023-05-16T06:11:56;11.8;74.1
74484;SHT31;62942;52.462;10.846;2023-05-16T06:13:06;11.7;73.8
74484;SHT31;62942;52.462;10.846;2023-05-16T06:14:16;11.7;74
74484;SHT31;62942;52.462;10.846;2023-05-16T06:15:26;11.7;74.1
74484;SHT31;62942;52.462;10.846;2023-05-16T06:16:36;11.6;74.4
74484;SHT31;62942;52.462;10.846;2023-05-16T06:17:45;11.5;74.2
74484;SHT31;62942;52.462;10.846;2023-05-16T06:18:56;11.5;74.3
74484;SHT31;62942;52.462;10.846;2023-05-16T06:20:06;11.4;74.2
74484;SHT31;62942;52.462;10.846;2023-05-16T06:21:06;11.4;74.5
74484;SHT31;62942;52.462;10.846;2023-05-16T06:22:06;11.4;74.1
74484;SHT31;62942;52.462;10.846;2023-05-16T06:23:15;11.4;73.9
74484;SHT31;62942;52.462;10.846;2023-05-16T06:24:15;11.3;73.1
74484;SHT31;62942;52.462;10.846;2023-05-16T06:25:26;11.3;72.2
74484;SHT31;62942;52.462;10.846;2023-05-16T06:26:35;11.3;72.1
74484;SHT31;62942;52.462;10.846;2023-05-16T06:27:36;11.2;72.5
74484;SHT31;62942;52.462;10.846;2023-05-16T06:28:46;11.2;72.9
74484;SHT31;62942;52.462;10.846;2023-05-16T06:29:55;11.1;72.8
74484;SHT31;62942;52.462;10.846;2023-05-16T06:30:56;11.1;73
74484;SHT31;62942;52.462;10.846;2023-05-16T06:32:06;11.2;73.3
74484;SHT31;62942;52.462;10.846;2023-05-16T06:33:16;11.2;73.6
74484;SHT31;62942;52.462;10.846;2023-05-16T06:34:25;11.2;73.8
74484;SHT31;62942;52.462;10.846;2023-05-16T06:35:36;11.3;73.6
74484;SHT31;62942;52.462;10.846;2023-05-16T06:36:45;11.3;73.4
74484;SHT31;62942;52.462;10.846;2023-05-16T06:37:46;11.4;73.5
74484;SHT31;62942;52.462;10.846;2023-05-16T06:38:56;11.4;72.6
74484;SHT31;62942;52.462;10.846;2023-05-16T06:40:06;11.5;72.6
74484;SHT31;62942;52.462;10.846;2023-05-16T06:41:06;11.5;72.2
74484;SHT31;62942;52.462;10.846;2023-05-16T06:42:15;11.5;72
74484;SHT31;62942;52.462;10.846;2023-05-16T06:43:25;11.6;71.6
74484;SHT31;62942;52.462;10.846;2023-05-16T06:44:35;11.6;71.1
74484;SHT31;62942;52.462;10.846;2023-05-16T06:45:35;11.7;71.1
74484;SHT31;62942;52.462;10.846;2023-05-16T06:46:45;11.7;71.3
74484;SHT31;62942;52.462;10.846;2023-05-16T06:47:55;11.7;71
74484;SHT31;62942;52.462;10.846;2023-05-16T06:49:05;11.8;70.7
74484;SHT31;62942;52.462;10.846;2023-05-16T06:50:15;11.8;70
74484;SHT31;62942;52.462;10.846;2023-05-16T06:51:25;11.8;69.8
74484;SHT31;62942;52.462;10.846;2023-05-16T06:52:35;11.8;69
74484;SHT31;62942;52.462;10.846;2023-05-16T06:53:45;11.8;68.9
74484;SHT31;62942;52.462;10.846;2023-05-16T06:54:55;11.8;68.4
74484;SHT31;62942;52.462;10.846;2023-05-16T06:56:05;11.8;68.5
74484;SHT31;62942;52.462;10.846;2023-05-16T06:57:05;11.8;68.1
74484;SHT31;62942;52.462;10.846;2023-05-16T06:58:05;11.8;68.2
74484;SHT31;62942;52.462;10.846;2023-05-16T06:59:05;11.8;68.3
74484;SHT31;62942;52.462;10.846;2023-05-16T07:00:16;11.8;68.2
74484;SHT31;62942;52.462;10.846;2023-05-16T07:01:15;11.8;66.4
74484;SHT31;62942;52.462;10.846;2023-05-16T07:02:25;11.8;66.4
74484;SHT31;62942;52.462;10.846;2023-05-16T07:03:26;11.8;66.3
74484;SHT31;62942;52.462;10.846;2023-05-16T07:04:35;11.7;66
74484;SHT31;62942;52.462;10.846;2023-05-16T07:05:45;11.8;65.8